createdAt,value
2019-06-01T00:00:10.085Z,0.00
2019-06-01T00:00:53.200Z,0.00
2019-06-01T00:01:52.199Z,0.00
2019-06-01T00:02:55.843Z,0.00
2019-06-01T00:03:52.283Z,0.00
2019-06-01T00:04:52.150Z,0.00
2019-06-01T00:05:52.223Z,0.00
2019-06-01T00:06:52.133Z,0.00
2019-06-01T00:07:52.276Z,0.00
2019-06-01T00:08:52.106Z,0.00
2019-06-01T00:09:52.150Z,0.00
2019-06-01T00:10:52.078Z,0.00
2019-06-01T00:11:52.164Z,0.00
2019-06-01T00:12:52.087Z,0.00
2019-06-01T00:13:52.073Z,0.00
2019-06-01T00:14:52.041Z,0.00
2019-06-01T00:15:52.086Z,0.00
2019-06-01T00:16:52.015Z,0.00
2019-06-01T00:17:52.033Z,0.00
2019-06-01T00:18:51.998Z,0.00
2019-06-01T00:19:52.021Z,0.00
2019-06-01T00:20:52.732Z,0.00
2019-06-01T00:21:52.305Z,0.00
2019-06-01T00:22:51.964Z,0.00
2019-06-01T00:23:52.839Z,0.00
2019-06-01T00:24:52.264Z,0.00
2019-06-01T00:25:52.913Z,0.00
2019-06-01T00:26:52.120Z,0.00
2019-06-01T00:27:52.902Z,0.00
2019-06-01T00:28:53.024Z,0.00
2019-06-01T00:29:53.091Z,0.00
2019-06-01T00:30:52.078Z,0.00
2019-06-01T00:31:52.186Z,0.00
2019-06-01T00:32:51.848Z,0.00
2019-06-01T00:33:51.910Z,0.00
2019-06-01T00:34:51.926Z,0.00
2019-06-01T00:35:51.817Z,0.00
2019-06-01T00:36:52.039Z,0.00
2019-06-01T00:37:51.915Z,0.00
2019-06-01T00:38:52.146Z,0.00
2019-06-01T00:39:52.035Z,0.00
2019-06-01T00:40:52.075Z,0.00
2019-06-01T00:41:52.554Z,0.00
2019-06-01T00:42:52.464Z,0.00
2019-06-01T00:43:52.508Z,0.00
2019-06-01T00:44:52.514Z,0.00
2019-06-01T00:45:53.018Z,0.00
2019-06-01T00:46:52.786Z,0.00
2019-06-01T00:47:52.956Z,0.00
2019-06-01T00:48:52.120Z,0.00
2019-06-01T00:49:52.955Z,0.00
2019-06-01T00:50:51.629Z,0.00
2019-06-01T00:51:52.482Z,0.00
2019-06-01T00:52:51.622Z,0.00
2019-06-01T00:53:51.937Z,0.00
2019-06-01T00:54:51.778Z,0.00
2019-06-01T00:55:51.694Z,0.00
2019-06-01T00:56:51.766Z,0.00
2019-06-01T00:57:51.889Z,0.00
2019-06-01T00:58:52.003Z,0.00
2019-06-01T00:59:53.118Z,0.00
2019-06-01T01:00:53.423Z,0.00
2019-06-01T01:01:52.395Z,0.00
2019-06-01T01:02:52.220Z,0.00
2019-06-01T01:03:52.365Z,0.00
2019-06-01T01:04:52.494Z,0.00
2019-06-01T01:05:52.651Z,0.00
2019-06-01T01:06:52.711Z,0.00
2019-06-01T01:07:53.064Z,0.00
2019-06-01T01:08:51.426Z,0.00
2019-06-01T01:09:51.438Z,0.00
2019-06-01T01:10:51.407Z,0.00
2019-06-01T01:11:51.453Z,0.00
2019-06-01T01:12:51.380Z,0.00
2019-06-01T01:13:51.496Z,0.00
2019-06-01T01:14:51.380Z,0.00
2019-06-01T01:15:51.463Z,0.00
2019-06-01T01:16:51.691Z,0.00
2019-06-01T01:17:51.998Z,0.00
2019-06-01T01:18:51.944Z,0.00
2019-06-01T01:19:51.939Z,0.00
2019-06-01T01:20:52.054Z,0.00
2019-06-01T01:21:52.143Z,0.00
2019-06-01T01:22:52.241Z,0.00
2019-06-01T01:23:53.035Z,0.00
2019-06-01T01:24:52.323Z,0.00
2019-06-01T01:25:52.545Z,0.00
2019-06-01T01:26:51.238Z,0.00
2019-06-01T01:27:51.257Z,0.00
2019-06-01T01:28:51.222Z,0.00
2019-06-01T01:29:51.272Z,0.00
2019-06-01T01:31:05.546Z,0.00
2019-06-01T01:31:53.186Z,0.00
2019-06-01T01:32:51.773Z,0.00
2019-06-01T01:33:51.393Z,0.00
2019-06-01T01:34:51.555Z,0.00
2019-06-01T01:35:52.587Z,0.00
2019-06-01T01:36:52.722Z,0.00
2019-06-01T01:37:51.940Z,0.00
2019-06-01T01:38:52.224Z,0.00
2019-06-01T01:39:52.184Z,0.00
2019-06-01T01:40:52.105Z,0.00
2019-06-01T01:41:52.164Z,0.00
2019-06-01T01:42:52.273Z,0.00
2019-06-01T01:43:52.659Z,0.00
2019-06-01T01:44:51.066Z,0.00
2019-06-01T01:45:51.026Z,0.00
2019-06-01T01:46:51.092Z,0.00
2019-06-01T01:47:51.006Z,0.00
2019-06-01T01:48:51.964Z,0.00
2019-06-01T01:49:52.006Z,0.00
2019-06-01T01:50:52.287Z,0.00
2019-06-01T01:51:50.959Z,0.00
2019-06-01T01:52:51.026Z,0.00
2019-06-01T01:53:50.957Z,0.00
2019-06-01T01:54:51.039Z,0.00
2019-06-01T01:55:51.036Z,0.00
2019-06-01T01:56:52.073Z,0.00
2019-06-01T01:57:51.171Z,0.00
2019-06-01T01:58:52.197Z,0.00
2019-06-01T01:59:51.264Z,0.00
2019-06-01T02:00:52.949Z,0.00
2019-06-01T02:01:50.867Z,0.00
2019-06-01T02:02:51.831Z,0.00
2019-06-01T02:03:51.593Z,0.00
2019-06-01T02:04:51.687Z,0.00
2019-06-01T02:05:50.867Z,0.00
2019-06-01T02:06:51.850Z,0.00
2019-06-01T02:07:51.006Z,0.00
2019-06-01T02:08:53.371Z,0.00
2019-06-01T02:09:51.101Z,0.00
2019-06-01T02:10:51.198Z,0.00
2019-06-01T02:11:51.371Z,0.00
2019-06-01T02:12:51.346Z,0.00
2019-06-01T02:13:51.511Z,0.00
2019-06-01T02:14:51.647Z,0.00
2019-06-01T02:15:52.202Z,0.00
2019-06-01T02:16:51.970Z,0.00
2019-06-01T02:17:51.952Z,0.00
2019-06-01T02:18:53.838Z,0.00
2019-06-01T02:19:50.653Z,0.00
2019-06-01T02:20:50.693Z,0.00
2019-06-01T02:21:50.630Z,0.00
2019-06-01T02:22:50.711Z,0.00
2019-06-01T02:23:50.625Z,0.00
2019-06-01T02:24:50.633Z,0.00
2019-06-01T02:25:50.584Z,0.00
2019-06-01T02:26:50.636Z,0.00
2019-06-01T02:27:50.560Z,0.00
2019-06-01T02:28:50.575Z,0.00
2019-06-01T02:29:50.559Z,0.00
2019-06-01T02:30:50.668Z,0.00
2019-06-01T02:31:50.521Z,0.00
2019-06-01T02:32:50.577Z,0.00
2019-06-01T02:33:50.506Z,0.00
2019-06-01T02:34:50.598Z,0.00
2019-06-01T02:35:50.476Z,0.00
2019-06-01T02:36:50.505Z,0.00
2019-06-01T02:37:50.450Z,0.00
2019-06-01T02:38:50.544Z,0.00
2019-06-01T02:39:50.424Z,0.00
2019-06-01T02:40:50.547Z,0.00
2019-06-01T02:41:50.403Z,0.00
2019-06-01T02:42:50.435Z,0.00
2019-06-01T02:43:50.399Z,0.00
2019-06-01T02:44:50.454Z,0.00
2019-06-01T02:45:50.361Z,0.00
2019-06-01T02:46:50.378Z,0.00
2019-06-01T02:47:50.337Z,0.00
2019-06-01T02:48:50.407Z,0.00
2019-06-01T02:49:50.320Z,0.00
2019-06-01T02:50:50.399Z,0.00
2019-06-01T02:51:50.296Z,0.00
2019-06-01T02:52:50.300Z,0.00
2019-06-01T02:53:50.310Z,0.00
2019-06-01T02:54:50.313Z,0.00
2019-06-01T02:55:50.249Z,0.00
2019-06-01T02:56:50.328Z,0.00
2019-06-01T02:57:50.228Z,0.00
2019-06-01T02:58:50.242Z,0.00
2019-06-01T02:59:50.231Z,0.00
2019-06-01T03:00:50.252Z,0.00
2019-06-01T03:01:57.213Z,5.62
2019-06-01T03:02:51.172Z,5.62
2019-06-01T03:03:50.274Z,5.62
2019-06-01T03:04:50.166Z,5.62
2019-06-01T03:05:50.189Z,5.62
2019-06-01T03:06:50.126Z,5.62
2019-06-01T03:07:50.205Z,5.62
2019-06-01T03:08:50.105Z,5.62
2019-06-01T03:09:50.145Z,11.25
2019-06-01T03:10:50.082Z,11.25
2019-06-01T03:11:50.124Z,11.25
2019-06-01T03:12:50.061Z,11.25
2019-06-01T03:13:50.137Z,11.25
2019-06-01T03:14:50.051Z,11.25
2019-06-01T03:15:50.049Z,16.88
2019-06-01T03:16:50.019Z,16.88
2019-06-01T03:17:50.065Z,16.88
2019-06-01T03:18:49.994Z,16.88
2019-06-01T03:19:50.114Z,16.88
2019-06-01T03:20:49.972Z,16.88
2019-06-01T03:21:49.990Z,22.50
2019-06-01T03:22:49.949Z,22.50
2019-06-01T03:23:50.005Z,22.50
2019-06-01T03:24:49.953Z,28.12
2019-06-01T03:25:50.018Z,28.12
2019-06-01T03:26:49.949Z,28.12
2019-06-01T03:27:49.929Z,33.75
2019-06-01T03:28:49.885Z,33.75
2019-06-01T03:29:49.971Z,33.75
2019-06-01T03:30:49.867Z,39.38
2019-06-01T03:31:49.958Z,39.38
2019-06-01T03:32:49.858Z,39.38
2019-06-01T03:33:49.868Z,45.00
2019-06-01T03:34:49.831Z,45.00
2019-06-01T03:35:49.883Z,45.00
2019-06-01T03:36:49.792Z,50.62
2019-06-01T03:37:49.892Z,50.62
2019-06-01T03:38:49.771Z,56.25
2019-06-01T03:39:50.860Z,56.25
2019-06-01T03:40:49.749Z,56.25
2019-06-01T03:41:50.841Z,56.25
2019-06-01T03:42:49.726Z,56.25
2019-06-01T03:43:49.834Z,61.88
2019-06-01T03:44:49.726Z,61.88
2019-06-01T03:45:49.744Z,67.50
2019-06-01T03:46:49.680Z,67.50
2019-06-01T03:47:49.754Z,73.12
2019-06-01T03:48:49.660Z,73.12
2019-06-01T03:49:49.701Z,78.75
2019-06-01T03:50:49.638Z,78.75
2019-06-01T03:51:49.697Z,78.75
2019-06-01T03:52:49.614Z,84.38
2019-06-01T03:53:49.698Z,90.00
2019-06-01T03:54:49.605Z,90.00
2019-06-01T03:55:49.610Z,90.00
2019-06-01T03:56:49.566Z,90.00
2019-06-01T03:57:49.620Z,90.00
2019-06-01T03:58:49.545Z,95.62
2019-06-01T03:59:49.565Z,95.62
2019-06-01T04:00:49.525Z,95.62
2019-06-01T04:01:49.547Z,95.62
2019-06-01T04:02:49.501Z,101.25
2019-06-01T04:03:49.559Z,101.25
2019-06-01T04:04:49.493Z,101.25
2019-06-01T04:05:49.581Z,106.88
2019-06-01T04:06:49.465Z,106.88
2019-06-01T04:07:49.484Z,112.50
2019-06-01T04:08:49.433Z,106.88
2019-06-01T04:09:49.529Z,112.50
2019-06-01T04:10:49.409Z,112.50
2019-06-01T04:11:49.518Z,112.50
2019-06-01T04:12:49.385Z,112.50
2019-06-01T04:13:49.424Z,112.50
2019-06-01T04:14:49.362Z,112.50
2019-06-01T04:15:49.472Z,112.50
2019-06-01T04:16:49.340Z,106.88
2019-06-01T04:17:49.349Z,101.25
2019-06-01T04:18:49.316Z,101.25
2019-06-01T04:19:49.370Z,101.25
2019-06-01T04:20:49.311Z,106.88
2019-06-01T04:21:50.404Z,112.50
2019-06-01T04:22:49.273Z,112.50
2019-06-01T04:23:56.356Z,118.12
2019-06-01T04:24:49.249Z,123.75
2019-06-01T04:25:51.279Z,129.38
2019-06-01T04:26:49.227Z,129.38
2019-06-01T04:27:50.223Z,140.62
2019-06-01T04:28:49.209Z,146.25
2019-06-01T04:29:49.228Z,157.50
2019-06-01T04:30:49.199Z,163.12
2019-06-01T04:31:49.243Z,168.75
2019-06-01T04:32:50.482Z,168.75
2019-06-01T04:33:49.255Z,174.38
2019-06-01T04:34:49.142Z,174.38
2019-06-01T04:35:49.202Z,180.00
2019-06-01T04:36:49.119Z,180.00
2019-06-01T04:37:49.185Z,191.25
2019-06-01T04:38:49.093Z,196.88
2019-06-01T04:39:49.196Z,202.50
2019-06-01T04:40:49.086Z,208.12
2019-06-01T04:41:49.112Z,213.75
2019-06-01T04:42:49.075Z,213.75
2019-06-01T04:43:49.119Z,225.00
2019-06-01T04:44:49.028Z,236.25
2019-06-01T04:45:49.063Z,241.88
2019-06-01T04:46:49.010Z,241.88
2019-06-01T04:47:49.048Z,241.88
2019-06-01T04:48:48.985Z,247.50
2019-06-01T04:49:49.073Z,230.62
2019-06-01T04:50:48.987Z,247.50
2019-06-01T04:51:48.969Z,241.88
2019-06-01T04:52:48.938Z,219.38
2019-06-01T04:53:48.987Z,230.62
2019-06-01T04:54:48.917Z,225.00
2019-06-01T04:55:49.031Z,213.75
2019-06-01T04:56:48.897Z,213.75
2019-06-01T04:57:48.907Z,213.75
2019-06-01T04:58:48.871Z,208.12
2019-06-01T04:59:48.923Z,219.38
2019-06-01T05:00:48.869Z,208.12
2019-06-01T05:01:48.843Z,202.50
2019-06-01T05:02:56.578Z,191.25
2019-06-01T05:03:49.813Z,191.25
2019-06-01T05:04:48.913Z,191.25
2019-06-01T05:05:48.806Z,191.25
2019-06-01T05:06:49.896Z,191.25
2019-06-01T05:07:48.770Z,196.88
2019-06-01T05:08:48.790Z,196.88
2019-06-01T05:09:48.748Z,213.75
2019-06-01T05:10:51.794Z,236.25
2019-06-01T05:11:48.724Z,253.12
2019-06-01T05:12:50.757Z,253.12
2019-06-01T05:13:48.702Z,275.62
2019-06-01T05:14:48.719Z,286.88
2019-06-01T05:15:48.694Z,270.00
2019-06-01T05:16:48.733Z,275.62
2019-06-01T05:17:48.659Z,264.38
2019-06-01T05:18:48.745Z,286.88
2019-06-01T05:19:48.636Z,292.50
2019-06-01T05:20:48.707Z,281.25
2019-06-01T05:21:48.612Z,281.25
2019-06-01T05:22:48.674Z,241.88
2019-06-01T05:23:48.599Z,292.50
2019-06-01T05:24:48.687Z,298.12
2019-06-01T05:25:48.610Z,286.88
2019-06-01T05:26:48.605Z,315.00
2019-06-01T05:27:48.548Z,320.62
2019-06-01T05:28:48.607Z,337.50
2019-06-01T05:29:48.524Z,343.12
2019-06-01T05:30:48.621Z,348.75
2019-06-01T05:31:48.514Z,388.12
2019-06-01T05:32:48.537Z,393.75
2019-06-01T05:33:48.484Z,382.50
2019-06-01T05:34:48.545Z,382.50
2019-06-01T05:35:48.457Z,376.88
2019-06-01T05:36:48.623Z,365.62
2019-06-01T05:37:48.438Z,354.38
2019-06-01T05:38:48.479Z,354.38
2019-06-01T05:39:48.412Z,360.00
2019-06-01T05:40:48.488Z,365.62
2019-06-01T05:41:48.416Z,371.25
2019-06-01T05:42:48.397Z,365.62
2019-06-01T05:43:48.368Z,365.62
2019-06-01T05:44:48.410Z,371.25
2019-06-01T05:45:48.356Z,376.88
2019-06-01T05:46:48.459Z,382.50
2019-06-01T05:47:48.328Z,382.50
2019-06-01T05:48:48.339Z,382.50
2019-06-01T05:49:48.303Z,382.50
2019-06-01T05:50:48.348Z,405.00
2019-06-01T05:51:48.309Z,421.88
2019-06-01T05:52:48.363Z,438.75
2019-06-01T05:53:48.257Z,433.12
2019-06-01T05:54:48.276Z,444.38
2019-06-01T05:55:48.235Z,461.25
2019-06-01T05:56:48.321Z,483.75
2019-06-01T05:57:48.213Z,483.75
2019-06-01T05:58:49.224Z,483.75
2019-06-01T05:59:48.193Z,472.50
2019-06-01T06:00:48.212Z,472.50
2019-06-01T06:01:48.183Z,461.25
2019-06-01T06:02:48.226Z,455.62
2019-06-01T06:03:48.152Z,450.00
2019-06-01T06:04:48.240Z,450.00
2019-06-01T06:05:48.129Z,450.00
2019-06-01T06:06:48.184Z,450.00
2019-06-01T06:07:48.106Z,450.00
2019-06-01T06:08:48.164Z,455.62
2019-06-01T06:09:48.087Z,450.00
2019-06-01T06:10:48.178Z,455.62
2019-06-01T06:11:48.075Z,455.62
2019-06-01T06:12:48.092Z,461.25
2019-06-01T06:13:48.040Z,461.25
2019-06-01T06:14:48.105Z,466.88
2019-06-01T06:15:48.020Z,466.88
2019-06-01T06:16:48.054Z,466.88
2019-06-01T06:17:47.995Z,466.88
2019-06-01T06:18:48.027Z,472.50
2019-06-01T06:19:47.975Z,472.50
2019-06-01T06:20:48.052Z,478.12
2019-06-01T06:21:47.966Z,472.50
2019-06-01T06:22:47.953Z,472.50
2019-06-01T06:23:47.983Z,478.12
2019-06-01T06:24:47.973Z,483.75
2019-06-01T06:25:47.910Z,483.75
2019-06-01T06:26:48.013Z,478.12
2019-06-01T06:27:47.893Z,483.75
2019-06-01T06:28:47.892Z,495.00
2019-06-01T06:29:47.864Z,489.38
2019-06-01T06:30:47.905Z,483.75
2019-06-01T06:31:47.863Z,483.75
2019-06-01T06:32:47.922Z,483.75
2019-06-01T06:33:56.394Z,489.38
2019-06-01T06:34:48.804Z,483.75
2019-06-01T06:36:02.787Z,500.62
2019-06-01T06:36:47.798Z,500.62
2019-06-01T06:37:47.860Z,506.25
2019-06-01T06:38:47.773Z,500.62
2019-06-01T06:39:47.864Z,506.25
2019-06-01T06:40:47.758Z,506.25
2019-06-01T06:41:47.837Z,495.00
2019-06-01T06:42:47.720Z,506.25
2019-06-01T06:43:47.788Z,506.25
2019-06-01T06:44:47.700Z,517.50
2019-06-01T06:45:48.727Z,517.50
2019-06-01T06:46:47.693Z,511.88
2019-06-01T06:47:47.712Z,511.88
2019-06-01T06:48:47.662Z,517.50
2019-06-01T06:49:47.729Z,517.50
2019-06-01T06:50:47.636Z,528.75
2019-06-01T06:51:47.668Z,534.38
2019-06-01T06:52:47.618Z,540.00
2019-06-01T06:53:47.651Z,534.38
2019-06-01T06:54:47.590Z,534.38
2019-06-01T06:55:47.664Z,534.38
2019-06-01T06:56:47.606Z,523.12
2019-06-01T06:57:47.590Z,534.38
2019-06-01T06:58:47.558Z,534.38
2019-06-01T06:59:47.593Z,534.38
2019-06-01T07:00:47.591Z,528.75
2019-06-01T07:01:47.609Z,528.75
2019-06-01T07:02:47.526Z,534.38
2019-06-01T07:03:47.518Z,534.38
2019-06-01T07:04:47.498Z,540.00
2019-06-01T07:05:47.538Z,534.38
2019-06-01T07:06:47.460Z,545.62
2019-06-01T07:07:47.573Z,545.62
2019-06-01T07:08:49.014Z,556.88
2019-06-01T07:09:47.461Z,556.88
2019-06-01T07:10:47.418Z,545.62
2019-06-01T07:11:47.466Z,534.38
2019-06-01T07:12:47.418Z,556.88
2019-06-01T07:13:47.498Z,551.25
2019-06-01T07:14:47.387Z,562.50
2019-06-01T07:15:47.410Z,556.88
2019-06-01T07:16:47.357Z,556.88
2019-06-01T07:17:47.458Z,556.88
2019-06-01T07:18:47.337Z,556.88
2019-06-01T07:19:47.448Z,556.88
2019-06-01T07:20:47.303Z,556.88
2019-06-01T07:21:54.293Z,556.88
2019-06-01T07:22:47.311Z,545.62
2019-06-01T07:23:48.370Z,545.62
2019-06-01T07:24:47.281Z,545.62
2019-06-01T07:25:47.380Z,556.88
2019-06-01T07:26:47.243Z,556.88
2019-06-01T07:27:47.314Z,556.88
2019-06-01T07:28:47.230Z,551.25
2019-06-01T07:29:47.287Z,551.25
2019-06-01T07:30:50.469Z,556.88
2019-06-01T07:31:47.194Z,551.25
2019-06-01T07:32:47.183Z,545.62
2019-06-01T07:33:47.216Z,551.25
2019-06-01T07:34:47.152Z,545.62
2019-06-01T07:35:47.224Z,556.88
2019-06-01T07:36:47.146Z,568.12
2019-06-01T07:37:47.165Z,568.12
2019-06-01T07:38:47.106Z,579.38
2019-06-01T07:39:47.157Z,585.00
2019-06-01T07:40:47.081Z,579.38
2019-06-01T07:41:47.247Z,579.38
2019-06-01T07:42:47.073Z,596.25
2019-06-01T07:43:47.071Z,596.25
2019-06-01T07:44:47.038Z,607.50
2019-06-01T07:45:47.109Z,601.88
2019-06-01T07:46:47.060Z,596.25
2019-06-01T07:47:47.029Z,596.25
2019-06-01T07:48:47.003Z,613.12
2019-06-01T07:49:47.022Z,635.62
2019-06-01T07:50:46.969Z,641.25
2019-06-01T07:51:47.188Z,618.75
2019-06-01T07:52:46.961Z,618.75
2019-06-01T07:53:47.038Z,624.38
2019-06-01T07:54:46.937Z,624.38
2019-06-01T07:55:46.955Z,630.00
2019-06-01T07:56:46.910Z,630.00
2019-06-01T07:57:47.014Z,630.00
2019-06-01T07:58:46.885Z,646.88
2019-06-01T07:59:46.979Z,646.88
2019-06-01T08:00:46.862Z,641.25
2019-06-01T08:01:46.890Z,646.88
2019-06-01T08:02:46.874Z,646.88
2019-06-01T08:03:47.928Z,646.88
2019-06-01T08:04:53.358Z,646.88
2019-06-01T08:05:54.805Z,658.12
2019-06-01T08:06:48.560Z,658.12
2019-06-01T08:07:48.886Z,663.75
2019-06-01T08:08:46.791Z,669.38
2019-06-01T08:09:48.808Z,669.38
2019-06-01T08:10:46.752Z,675.00
2019-06-01T08:11:46.753Z,675.00
2019-06-01T08:12:46.732Z,680.62
2019-06-01T08:13:46.795Z,686.25
2019-06-01T08:14:46.710Z,703.12
2019-06-01T08:15:46.801Z,708.75
2019-06-01T08:16:46.685Z,703.12
2019-06-01T08:17:46.701Z,714.38
2019-06-01T08:18:46.681Z,714.38
2019-06-01T08:19:46.704Z,720.00
2019-06-01T08:20:46.641Z,731.25
2019-06-01T08:21:46.717Z,736.88
2019-06-01T08:22:46.644Z,686.25
2019-06-01T08:23:46.659Z,697.50
2019-06-01T08:24:46.603Z,731.25
2019-06-01T08:25:46.643Z,793.12
2019-06-01T08:26:46.576Z,793.12
2019-06-01T08:27:46.658Z,703.12
2019-06-01T08:28:46.574Z,765.00
2019-06-01T08:29:46.578Z,781.88
2019-06-01T08:30:46.536Z,793.12
2019-06-01T08:31:46.584Z,787.50
2019-06-01T08:32:46.520Z,810.00
2019-06-01T08:33:46.629Z,776.25
2019-06-01T08:34:46.502Z,731.25
2019-06-01T08:35:46.510Z,720.00
2019-06-01T08:36:46.469Z,613.12
2019-06-01T08:37:46.531Z,663.75
2019-06-01T08:38:46.475Z,781.88
2019-06-01T08:39:46.534Z,770.62
2019-06-01T08:40:46.434Z,804.38
2019-06-01T08:41:46.458Z,826.88
2019-06-01T08:42:46.404Z,849.38
2019-06-01T08:43:46.498Z,843.75
2019-06-01T08:44:46.388Z,894.38
2019-06-01T08:45:46.472Z,900.00
2019-06-01T08:46:46.378Z,815.62
2019-06-01T08:47:46.383Z,956.25
2019-06-01T08:48:46.352Z,945.00
2019-06-01T08:49:48.450Z,973.12
2019-06-01T08:50:46.436Z,905.62
2019-06-01T08:51:48.357Z,933.75
2019-06-01T08:52:46.314Z,1051.88
2019-06-01T08:53:46.353Z,939.38
2019-06-01T08:54:46.272Z,804.38
2019-06-01T08:55:48.284Z,680.62
2019-06-01T08:56:46.256Z,978.75
2019-06-01T08:57:47.288Z,871.88
2019-06-01T08:58:46.265Z,871.88
2019-06-01T08:59:46.266Z,697.50
2019-06-01T09:00:46.211Z,995.62
2019-06-01T09:01:46.284Z,1001.25
2019-06-01T09:02:46.192Z,1006.88
2019-06-01T09:03:47.061Z,1006.88
2019-06-01T09:04:46.184Z,1029.38
2019-06-01T09:05:46.199Z,1091.25
2019-06-01T09:06:46.147Z,1051.88
2019-06-01T09:07:46.214Z,1096.88
2019-06-01T09:08:46.133Z,995.62
2019-06-01T09:09:46.157Z,753.75
2019-06-01T09:10:46.102Z,1051.88
2019-06-01T09:11:46.143Z,933.75
2019-06-01T09:12:46.079Z,1141.88
2019-06-01T09:13:46.161Z,1096.88
2019-06-01T09:14:46.077Z,776.25
2019-06-01T09:15:46.082Z,1153.12
2019-06-01T09:16:46.044Z,1119.38
2019-06-01T09:17:46.089Z,1136.25
2019-06-01T09:18:46.016Z,1125.00
2019-06-01T09:19:46.125Z,1102.50
2019-06-01T09:20:46.007Z,1080.00
2019-06-01T09:21:46.008Z,1096.88
2019-06-01T09:22:48.197Z,1125.00
2019-06-01T09:23:46.020Z,1203.75
2019-06-01T09:24:45.963Z,1203.75
2019-06-01T09:25:46.032Z,1226.25
2019-06-01T09:26:45.947Z,1243.12
2019-06-01T09:27:45.928Z,1260.00
2019-06-01T09:28:45.917Z,1327.50
2019-06-01T09:29:45.988Z,1327.50
2019-06-01T09:30:45.897Z,1361.25
2019-06-01T09:31:45.976Z,1456.88
2019-06-01T09:32:45.874Z,1462.50
2019-06-01T09:34:00.847Z,1400.62
2019-06-01T09:34:45.859Z,1310.62
2019-06-01T09:36:07.913Z,1254.38
2019-06-01T09:36:45.838Z,1209.38
2019-06-01T09:37:46.851Z,1181.25
2019-06-01T09:38:45.816Z,1192.50
2019-06-01T09:39:45.851Z,1170.00
2019-06-01T09:40:45.858Z,1181.25
2019-06-01T09:41:45.849Z,1215.00
2019-06-01T09:42:45.766Z,1209.38
2019-06-01T09:43:46.773Z,1186.88
2019-06-01T09:44:45.786Z,1209.38
2019-06-01T09:45:45.773Z,1203.75
2019-06-01T09:46:45.730Z,1203.75
2019-06-01T09:47:46.167Z,1203.75
2019-06-01T09:48:45.714Z,1186.88
2019-06-01T09:49:45.821Z,1186.88
2019-06-01T09:50:45.687Z,1175.62
2019-06-01T09:51:45.704Z,1136.25
2019-06-01T09:52:45.675Z,922.50
2019-06-01T09:53:45.711Z,1029.38
2019-06-01T09:54:45.656Z,1057.50
2019-06-01T09:55:45.725Z,933.75
2019-06-01T09:56:45.629Z,956.25
2019-06-01T09:57:45.651Z,877.50
2019-06-01T09:58:45.604Z,978.75
2019-06-01T09:59:45.693Z,1018.12
2019-06-01T10:00:45.583Z,995.62
2019-06-01T10:01:45.695Z,928.12
2019-06-01T10:02:45.581Z,838.12
2019-06-01T10:03:45.585Z,838.12
2019-06-01T10:04:45.546Z,877.50
2019-06-01T10:06:00.874Z,883.12
2019-06-01T10:06:46.514Z,990.00
2019-06-01T10:07:45.612Z,1051.88
2019-06-01T10:08:45.509Z,1023.75
2019-06-01T10:09:45.545Z,1406.25
2019-06-01T10:10:45.474Z,1715.62
2019-06-01T10:11:45.539Z,1878.75
2019-06-01T10:12:45.455Z,1951.88
2019-06-01T10:13:45.553Z,2036.25
2019-06-01T10:14:45.452Z,2143.12
2019-06-01T10:15:45.460Z,2148.75
2019-06-01T10:16:45.411Z,2199.38
2019-06-01T10:17:45.482Z,2233.12
2019-06-01T10:18:45.388Z,2131.88
2019-06-01T10:20:00.893Z,2075.62
2019-06-01T10:20:45.364Z,2075.62
2019-06-01T10:21:46.419Z,2115.00
2019-06-01T10:22:45.349Z,2025.00
2019-06-01T10:23:49.638Z,2227.50
2019-06-01T10:24:45.337Z,2250.00
2019-06-01T10:25:46.345Z,2295.00
2019-06-01T10:26:45.305Z,2250.00
2019-06-01T10:27:45.336Z,2154.38
2019-06-01T10:28:45.299Z,2160.00
2019-06-01T10:29:45.374Z,2182.50
2019-06-01T10:30:45.315Z,2126.25
2019-06-01T10:31:45.355Z,2216.25
2019-06-01T10:32:45.239Z,2317.50
2019-06-01T10:33:45.274Z,2351.25
2019-06-01T10:34:45.239Z,2401.88
2019-06-01T10:35:45.281Z,2362.50
2019-06-01T10:36:45.198Z,2334.38
2019-06-01T10:37:45.294Z,2255.62
2019-06-01T10:38:45.227Z,2328.75
2019-06-01T10:39:45.241Z,2300.62
2019-06-01T10:40:45.151Z,2261.25
2019-06-01T10:41:45.221Z,2216.25
2019-06-01T10:42:45.143Z,2278.12
2019-06-01T10:43:45.234Z,2306.25
2019-06-01T10:44:46.000Z,2283.75
2019-06-01T10:45:45.152Z,2306.25
2019-06-01T10:46:45.096Z,2300.62
2019-06-01T10:47:45.168Z,2385.00
2019-06-01T10:48:45.070Z,2446.88
2019-06-01T10:49:45.106Z,2379.38
2019-06-01T10:50:45.048Z,2272.50
2019-06-01T10:51:45.089Z,2373.75
2019-06-01T10:52:45.028Z,2418.75
2019-06-01T10:53:45.104Z,2503.12
2019-06-01T10:54:45.025Z,2514.38
2019-06-01T10:55:45.126Z,2615.62
2019-06-01T10:56:44.988Z,2565.00
2019-06-01T10:57:45.037Z,2351.25
2019-06-01T10:58:59.218Z,2317.50
2019-06-01T10:59:45.970Z,2396.25
2019-06-01T11:00:50.652Z,2340.00
2019-06-01T11:01:45.943Z,1867.50
2019-06-01T11:02:44.956Z,2559.38
2019-06-01T11:03:44.921Z,2615.62
2019-06-01T11:04:45.002Z,2632.50
2019-06-01T11:05:44.895Z,2587.50
2019-06-01T11:06:48.695Z,2598.75
2019-06-01T11:07:44.876Z,2610.00
2019-06-01T11:08:44.917Z,2621.25
2019-06-01T11:09:44.905Z,2806.88
2019-06-01T11:10:51.879Z,2823.75
2019-06-01T11:11:44.833Z,2739.38
2019-06-01T11:12:45.850Z,2711.25
2019-06-01T11:13:44.814Z,2767.50
2019-06-01T11:14:44.844Z,2733.75
2019-06-01T11:15:44.810Z,2688.75
2019-06-01T11:16:44.849Z,2683.12
2019-06-01T11:17:44.801Z,2632.50
2019-06-01T11:18:44.864Z,2621.25
2019-06-01T11:19:44.764Z,2643.75
2019-06-01T11:20:44.821Z,2739.38
2019-06-01T11:21:44.734Z,2795.62
2019-06-01T11:22:44.796Z,2638.12
2019-06-01T11:23:46.534Z,2598.75
2019-06-01T11:24:44.803Z,2660.62
2019-06-01T11:25:44.707Z,2671.88
2019-06-01T11:26:44.712Z,2795.62
2019-06-01T11:27:44.675Z,2756.25
2019-06-01T11:28:44.750Z,2649.38
2019-06-01T11:29:51.059Z,2688.75
2019-06-01T11:30:45.716Z,2666.25
2019-06-01T11:31:44.628Z,2739.38
2019-06-01T11:32:45.190Z,2863.12
2019-06-01T11:33:44.608Z,2649.38
2019-06-01T11:34:44.670Z,2491.88
2019-06-01T11:35:45.398Z,2514.38
2019-06-01T11:37:03.540Z,2621.25
2019-06-01T11:37:45.560Z,2773.12
2019-06-01T11:38:45.022Z,2790.00
2019-06-01T11:39:44.862Z,2790.00
2019-06-01T11:40:44.881Z,2913.75
2019-06-01T11:41:44.827Z,2891.25
2019-06-01T11:42:45.151Z,2767.50
2019-06-01T11:43:46.142Z,2784.38
2019-06-01T11:44:44.895Z,2851.88
2019-06-01T11:45:45.206Z,2733.75
2019-06-01T11:46:45.098Z,2818.12
2019-06-01T11:47:45.088Z,2908.12
2019-06-01T11:48:45.403Z,2891.25
2019-06-01T11:49:45.080Z,2880.00
2019-06-01T11:50:45.361Z,2925.00
2019-06-01T11:51:45.303Z,2818.12
2019-06-01T11:52:45.512Z,2880.00
2019-06-01T11:53:45.654Z,2913.75
2019-06-01T11:54:45.465Z,2761.88
2019-06-01T11:55:45.559Z,2756.25
2019-06-01T11:56:51.377Z,2773.12
2019-06-01T11:57:45.783Z,2818.12
2019-06-01T11:58:46.365Z,2790.00
2019-06-01T11:59:45.596Z,2745.00
2019-06-01T12:00:45.797Z,2728.12
2019-06-01T12:01:44.307Z,2880.00
2019-06-01T12:02:44.347Z,2778.75
2019-06-01T12:03:44.289Z,2683.12
2019-06-01T12:04:44.364Z,2722.50
2019-06-01T12:05:44.294Z,2705.62
2019-06-01T12:06:44.372Z,2711.25
2019-06-01T12:07:44.245Z,2711.25
2019-06-01T12:08:44.285Z,2666.25
2019-06-01T12:09:44.229Z,2711.25
2019-06-01T12:10:45.298Z,2683.12
2019-06-01T12:11:44.344Z,2604.38
2019-06-01T12:12:44.449Z,2851.88
2019-06-01T12:13:44.520Z,2745.00
2019-06-01T12:14:44.496Z,1940.62
2019-06-01T12:15:44.468Z,2694.38
2019-06-01T12:16:44.773Z,2649.38
2019-06-01T12:17:44.881Z,2671.88
2019-06-01T12:18:44.714Z,2705.62
2019-06-01T12:19:44.743Z,2548.12
2019-06-01T12:20:44.942Z,2677.50
2019-06-01T12:21:45.229Z,2593.12
2019-06-01T12:22:45.134Z,2739.38
2019-06-01T12:23:45.519Z,2666.25
2019-06-01T12:24:45.086Z,2649.38
2019-06-01T12:25:44.430Z,2683.12
2019-06-01T12:26:45.401Z,2812.50
2019-06-01T12:27:44.041Z,2857.50
2019-06-01T12:28:44.113Z,2812.50
2019-06-01T12:29:44.035Z,2728.12
2019-06-01T12:30:44.073Z,2722.50
2019-06-01T12:31:43.999Z,2761.88
2019-06-01T12:32:44.222Z,2739.38
2019-06-01T12:33:44.241Z,2621.25
2019-06-01T12:34:44.107Z,2486.25